sensor_id;sensor_type;location;lat;lon;timestamp;pressure;altitude;pressure_sealevel;temperature;humidity
84959;BME280;75256;48.062;11.662;2024-03-08T00:00:22;95179.25;;;0.03;87.81
84959;BME280;75256;48.062;11.662;2024-03-08T00:02:50;95176.94;;;0.02;87.84
84959;BME280;75256;48.062;11.662;2024-03-08T00:05:19;95176.16;;;0.01;86.93
84959;BME280;75256;48.062;11.662;2024-03-08T00:07:44;95166.94;;;-0.05;87.71
84959;BME280;75256;48.062;11.662;2024-03-08T00:10:11;95167.66;;;-0.29;88.26
84959;BME280;75256;48.062;11.662;2024-03-08T00:12:44;95168.41;;;-0.39;87.95
84959;BME280;75256;48.062;11.662;2024-03-08T00:15:16;95163.34;;;-0.58;89.65
84959;BME280;75256;48.062;11.662;2024-03-08T00:17:46;95166.41;;;-0.56;89.57
84959;BME280;75256;48.062;11.662;2024-03-08T00:20:15;95174.53;;;-0.32;90.34
84959;BME280;75256;48.062;11.662;2024-03-08T00:22:45;95169.22;;;-0.21;88.51
84959;BME280;75256;48.062;11.662;2024-03-08T00:25:11;95169.22;;;-0.18;89.45
84959;BME280;75256;48.062;11.662;2024-03-08T00:27:39;95172.28;;;-0.19;89.30
84959;BME280;75256;48.062;11.662;2024-03-08T00:30:06;95163.09;;;-0.18;88.92
84959;BME280;75256;48.062;11.662;2024-03-08T00:32:32;95158.88;;;-0.19;88.92
84959;BME280;75256;48.062;11.662;2024-03-08T00:34:59;95164.25;;;-0.19;89.03
84959;BME280;75256;48.062;11.662;2024-03-08T00:37:27;95155.41;;;-0.23;88.81
84959;BME280;75256;48.062;11.662;2024-03-08T00:39:56;95147.34;;;-0.27;88.57
84959;BME280;75256;48.062;11.662;2024-03-08T00:42:21;95147.75;;;-0.28;88.26
84959;BME280;75256;48.062;11.662;2024-03-08T00:44:47;95145.81;;;-0.31;88.68
84959;BME280;75256;48.062;11.662;2024-03-08T00:47:13;95135.47;;;-0.36;88.92
84959;BME280;75256;48.062;11.662;2024-03-08T00:49:42;95131.66;;;-0.39;89.27
84959;BME280;75256;48.062;11.662;2024-03-08T00:52:08;95136.19;;;-0.50;88.13
84959;BME280;75256;48.062;11.662;2024-03-08T00:54:36;95133.00;;;-0.83;89.33
84959;BME280;75256;48.062;11.662;2024-03-08T00:57:04;95126.81;;;-0.98;90.28
84959;BME280;75256;48.062;11.662;2024-03-08T00:59:31;95129.53;;;-0.87;89.37
84959;BME280;75256;48.062;11.662;2024-03-08T01:02:00;95126.91;;;-0.77;89.72
84959;BME280;75256;48.062;11.662;2024-03-08T01:04:25;95114.25;;;-0.83;89.81
84959;BME280;75256;48.062;11.662;2024-03-08T01:06:56;95115.78;;;-0.86;89.47
84959;BME280;75256;48.062;11.662;2024-03-08T01:09:23;95121.53;;;-0.80;89.40
84959;BME280;75256;48.062;11.662;2024-03-08T01:11:52;95119.97;;;-0.85;89.88
84959;BME280;75256;48.062;11.662;2024-03-08T01:14:19;95114.56;;;-0.95;89.55
84959;BME280;75256;48.062;11.662;2024-03-08T01:16:47;95113.09;;;-0.89;90.34
84959;BME280;75256;48.062;11.662;2024-03-08T01:19:16;95110.75;;;-0.94;90.28
84959;BME280;75256;48.062;11.662;2024-03-08T01:21:44;95122.56;;;-1.09;90.71
84959;BME280;75256;48.062;11.662;2024-03-08T01:24:09;95114.13;;;-1.11;90.55
84959;BME280;75256;48.062;11.662;2024-03-08T01:26:35;95103.81;;;-1.06;90.44
84959;BME280;75256;48.062;11.662;2024-03-08T01:29:03;95098.16;;;-0.87;89.98
84959;BME280;75256;48.062;11.662;2024-03-08T01:31:31;95085.47;;;-1.00;90.08
84959;BME280;75256;48.062;11.662;2024-03-08T01:33:59;95079.38;;;-1.01;90.49
84959;BME280;75256;48.062;11.662;2024-03-08T01:36:25;95079.00;;;-0.96;90.41
84959;BME280;75256;48.062;11.662;2024-03-08T01:38:51;95082.47;;;-0.88;89.64
84959;BME280;75256;48.062;11.662;2024-03-08T01:41:19;95076.31;;;-0.96;90.12
84959;BME280;75256;48.062;11.662;2024-03-08T01:43:47;95064.88;;;-0.89;89.74
84959;BME280;75256;48.062;11.662;2024-03-08T01:46:15;95067.94;;;-0.80;89.51
84959;BME280;75256;48.062;11.662;2024-03-08T01:48:45;95060.25;;;-0.89;90.20
84959;BME280;75256;48.062;11.662;2024-03-08T01:51:11;95057.16;;;-1.01;90.76
84959;BME280;75256;48.062;11.662;2024-03-08T01:53:37;95064.75;;;-1.14;91.12
84959;BME280;75256;48.062;11.662;2024-03-08T01:56:04;95067.03;;;-1.23;90.72
84959;BME280;75256;48.062;11.662;2024-03-08T01:58:34;95066.19;;;-1.31;90.80
84959;BME280;75256;48.062;11.662;2024-03-08T02:01:01;95055.88;;;-1.29;91.06
84959;BME280;75256;48.062;11.662;2024-03-08T02:03:28;95040.19;;;-1.34;90.92
84959;BME280;75256;48.062;11.662;2024-03-08T02:05:57;95039.47;;;-1.23;90.75
84959;BME280;75256;48.062;11.662;2024-03-08T02:08:25;95044.88;;;-1.16;91.24
84959;BME280;75256;48.062;11.662;2024-03-08T02:10:50;95036.44;;;-1.18;91.11
84959;BME280;75256;48.062;11.662;2024-03-08T02:13:16;95044.06;;;-1.20;91.28
84959;BME280;75256;48.062;11.662;2024-03-08T02:15:54;95042.88;;;-1.30;91.30
84959;BME280;75256;48.062;11.662;2024-03-08T02:18:21;95039.78;;;-1.36;91.59
84959;BME280;75256;48.062;11.662;2024-03-08T02:20:51;95033.66;;;-1.40;91.25
84959;BME280;75256;48.062;11.662;2024-03-08T02:23:18;95035.63;;;-1.33;91.13
84959;BME280;75256;48.062;11.662;2024-03-08T02:25:46;95033.34;;;-1.24;91.60
84959;BME280;75256;48.062;11.662;2024-03-08T02:28:12;95035.63;;;-1.23;91.31
84959;BME280;75256;48.062;11.662;2024-03-08T02:30:38;95028.38;;;-1.22;90.71
84959;BME280;75256;48.062;11.662;2024-03-08T02:33:04;95028.31;;;-1.33;90.85
84959;BME280;75256;48.062;11.662;2024-03-08T02:35:30;95026.44;;;-1.29;91.25
84959;BME280;75256;48.062;11.662;2024-03-08T02:37:58;95024.88;;;-1.37;91.87
84959;BME280;75256;48.062;11.662;2024-03-08T02:40:23;95024.44;;;-1.46;91.23
84959;BME280;75256;48.062;11.662;2024-03-08T02:42:49;95019.50;;;-1.44;90.96
84959;BME280;75256;48.062;11.662;2024-03-08T02:45:14;95027.97;;;-1.35;92.02
84959;BME280;75256;48.062;11.662;2024-03-08T02:47:40;95027.19;;;-1.32;91.49
84959;BME280;75256;48.062;11.662;2024-03-08T02:50:06;95022.56;;;-1.42;91.02
84959;BME280;75256;48.062;11.662;2024-03-08T02:52:34;95021.88;;;-1.28;90.90
84959;BME280;75256;48.062;11.662;2024-03-08T02:55:01;95017.28;;;-1.24;91.08
84959;BME280;75256;48.062;11.662;2024-03-08T02:57:26;95026.06;;;-1.31;90.47
84959;BME280;75256;48.062;11.662;2024-03-08T02:59:54;95019.56;;;-1.33;91.07
84959;BME280;75256;48.062;11.662;2024-03-08T03:02:23;95010.00;;;-1.31;91.73
84959;BME280;75256;48.062;11.662;2024-03-08T03:04:48;95015.78;;;-1.21;90.98
84959;BME280;75256;48.062;11.662;2024-03-08T03:07:16;95006.53;;;-1.35;91.00
84959;BME280;75256;48.062;11.662;2024-03-08T03:09:42;95010.78;;;-1.27;91.52
84959;BME280;75256;48.062;11.662;2024-03-08T03:12:08;95003.50;;;-1.23;91.06
84959;BME280;75256;48.062;11.662;2024-03-08T03:14:37;95005.41;;;-1.34;90.63
84959;BME280;75256;48.062;11.662;2024-03-08T03:17:06;95008.03;;;-1.41;91.20
84959;BME280;75256;48.062;11.662;2024-03-08T03:19:31;95005.44;;;-1.27;91.45
84959;BME280;75256;48.062;11.662;2024-03-08T03:21:59;94990.88;;;-1.26;91.10
84959;BME280;75256;48.062;11.662;2024-03-08T03:24:27;94993.56;;;-1.26;90.58
84959;BME280;75256;48.062;11.662;2024-03-08T03:26:54;94997.41;;;-1.23;91.61
84959;BME280;75256;48.062;11.662;2024-03-08T03:29:22;94996.56;;;-1.38;91.42
84959;BME280;75256;48.062;11.662;2024-03-08T03:31:47;95002.63;;;-1.51;91.53
84959;BME280;75256;48.062;11.662;2024-03-08T03:34:13;94997.28;;;-1.51;92.11
84959;BME280;75256;48.062;11.662;2024-03-08T03:36:41;94998.09;;;-1.40;91.26
84959;BME280;75256;48.062;11.662;2024-03-08T03:39:12;94997.38;;;-1.34;91.14
84959;BME280;75256;48.062;11.662;2024-03-08T03:41:43;95002.34;;;-1.29;91.83
84959;BME280;75256;48.062;11.662;2024-03-08T03:44:11;94995.47;;;-1.30;91.27
84959;BME280;75256;48.062;11.662;2024-03-08T03:46:36;94992.78;;;-1.33;91.67
84959;BME280;75256;48.062;11.662;2024-03-08T03:49:02;94996.56;;;-1.45;91.87
84959;BME280;75256;48.062;11.662;2024-03-08T03:51:28;94984.69;;;-1.44;91.87
84959;BME280;75256;48.062;11.662;2024-03-08T03:53:54;94987.38;;;-1.44;91.80
84959;BME280;75256;48.062;11.662;2024-03-08T03:56:27;94991.16;;;-1.55;91.76
84959;BME280;75256;48.062;11.662;2024-03-08T03:58:52;94991.88;;;-1.62;92.34
84959;BME280;75256;48.062;11.662;2024-03-08T04:01:18;94983.03;;;-1.73;92.60
84959;BME280;75256;48.062;11.662;2024-03-08T04:03:47;94978.81;;;-1.77;92.49
84959;BME280;75256;48.062;11.662;2024-03-08T04:06:12;94981.91;;;-1.72;93.47
84959;BME280;75256;48.062;11.662;2024-03-08T04:08:38;94983.34;;;-1.85;93.40
84959;BME280;75256;48.062;11.662;2024-03-08T04:11:03;94987.22;;;-1.79;93.21
84959;BME280;75256;48.062;11.662;2024-03-08T04:13:33;94980.34;;;-1.73;92.93
84959;BME280;75256;48.062;11.662;2024-03-08T04:15:58;94978.09;;;-1.67;92.91
84959;BME280;75256;48.062;11.662;2024-03-08T04:18:23;94975.41;;;-1.67;93.29
84959;BME280;75256;48.062;11.662;2024-03-08T04:20:51;94976.91;;;-1.77;92.98
84959;BME280;75256;48.062;11.662;2024-03-08T04:23:17;94972.63;;;-1.85;93.33
84959;BME280;75256;48.062;11.662;2024-03-08T04:25:43;94978.06;;;-1.74;93.00
84959;BME280;75256;48.062;11.662;2024-03-08T04:28:09;94968.88;;;-1.77;93.65
84959;BME280;75256;48.062;11.662;2024-03-08T04:30:37;94972.69;;;-1.78;92.84
84959;BME280;75256;48.062;11.662;2024-03-08T04:33:03;94968.09;;;-1.81;92.59
84959;BME280;75256;48.062;11.662;2024-03-08T04:35:29;94969.28;;;-1.68;93.27
84959;BME280;75256;48.062;11.662;2024-03-08T04:37:54;94964.31;;;-1.69;93.05
84959;BME280;75256;48.062;11.662;2024-03-08T04:40:21;94967.75;;;-1.72;92.55
84959;BME280;75256;48.062;11.662;2024-03-08T04:42:47;94976.97;;;-1.63;92.47
84959;BME280;75256;48.062;11.662;2024-03-08T04:45:16;94967.00;;;-1.69;92.86
84959;BME280;75256;48.062;11.662;2024-03-08T04:47:41;94971.22;;;-1.68;92.69
84959;BME280;75256;48.062;11.662;2024-03-08T04:50:07;94970.75;;;-1.84;93.02
84959;BME280;75256;48.062;11.662;2024-03-08T04:52:36;94979.09;;;-1.93;92.95
84959;BME280;75256;48.062;11.662;2024-03-08T04:55:01;94965.44;;;-1.77;93.37
84959;BME280;75256;48.062;11.662;2024-03-08T04:57:30;94975.00;;;-1.73;93.20
84959;BME280;75256;48.062;11.662;2024-03-08T04:59:55;94970.41;;;-1.76;92.85
84959;BME280;75256;48.062;11.662;2024-03-08T05:02:21;94962.69;;;-1.88;93.34
84959;BME280;75256;48.062;11.662;2024-03-08T05:04:55;94963.91;;;-1.78;93.39
84959;BME280;75256;48.062;11.662;2024-03-08T05:07:23;94963.19;;;-1.72;92.65
84959;BME280;75256;48.062;11.662;2024-03-08T05:09:51;94960.47;;;-1.79;93.43
84959;BME280;75256;48.062;11.662;2024-03-08T05:12:18;94960.38;;;-1.93;92.79
84959;BME280;75256;48.062;11.662;2024-03-08T05:14:45;94968.84;;;-1.80;93.17
84959;BME280;75256;48.062;11.662;2024-03-08T05:17:14;94962.81;;;-1.67;92.67
84959;BME280;75256;48.062;11.662;2024-03-08T05:19:40;94957.50;;;-1.56;92.40
84959;BME280;75256;48.062;11.662;2024-03-08T05:22:05;94965.53;;;-1.56;92.95
84959;BME280;75256;48.062;11.662;2024-03-08T05:24:30;94947.59;;;-1.52;92.52
84959;BME280;75256;48.062;11.662;2024-03-08T05:26:56;94946.44;;;-1.55;92.40
84959;BME280;75256;48.062;11.662;2024-03-08T05:29:21;94948.31;;;-1.59;92.23
84959;BME280;75256;48.062;11.662;2024-03-08T05:31:49;94953.34;;;-1.47;93.10
84959;BME280;75256;48.062;11.662;2024-03-08T05:34:18;94951.13;;;-1.27;92.68
84959;BME280;75256;48.062;11.662;2024-03-08T05:36:45;94948.47;;;-1.16;92.72
84959;BME280;75256;48.062;11.662;2024-03-08T05:39:15;94945.41;;;-1.18;92.73
84959;BME280;75256;48.062;11.662;2024-03-08T05:41:41;94944.25;;;-1.17;92.37
84959;BME280;75256;48.062;11.662;2024-03-08T05:44:13;94948.13;;;-1.04;91.76
84959;BME280;75256;48.062;11.662;2024-03-08T05:46:39;94944.28;;;-1.03;91.69
84959;BME280;75256;48.062;11.662;2024-03-08T05:49:05;94947.00;;;-0.96;91.72
84959;BME280;75256;48.062;11.662;2024-03-08T05:51:35;94945.84;;;-0.88;91.67
84959;BME280;75256;48.062;11.662;2024-03-08T05:54:06;94949.69;;;-0.89;91.56
84959;BME280;75256;48.062;11.662;2024-03-08T05:56:32;94939.75;;;-0.75;91.94
84959;BME280;75256;48.062;11.662;2024-03-08T05:58:58;94936.31;;;-0.68;91.10
84959;BME280;75256;48.062;11.662;2024-03-08T06:01:26;94947.38;;;-0.80;91.53
84959;BME280;75256;48.062;11.662;2024-03-08T06:03:52;94943.16;;;-0.88;91.14
84959;BME280;75256;48.062;11.662;2024-03-08T06:06:23;94943.16;;;-0.88;91.21
84959;BME280;75256;48.062;11.662;2024-03-08T06:08:52;94940.53;;;-0.67;91.09
84959;BME280;75256;48.062;11.662;2024-03-08T06:11:19;94937.84;;;-0.60;89.62
84959;BME280;75256;48.062;11.662;2024-03-08T06:13:52;94939.38;;;-0.73;90.65
84959;BME280;75256;48.062;11.662;2024-03-08T06:16:20;94936.31;;;-0.61;90.89
84959;BME280;75256;48.062;11.662;2024-03-08T06:18:46;94938.63;;;-0.56;89.96
84959;BME280;75256;48.062;11.662;2024-03-08T06:21:12;94933.66;;;-0.47;90.13
84959;BME280;75256;48.062;11.662;2024-03-08T06:23:37;94938.63;;;-0.49;90.07
84959;BME280;75256;48.062;11.662;2024-03-08T06:26:09;94942.44;;;-0.43;89.35
84959;BME280;75256;48.062;11.662;2024-03-08T06:28:34;94944.00;;;-0.39;88.94
84959;BME280;75256;48.062;11.662;2024-03-08T06:31:05;94941.69;;;-0.47;89.21
84959;BME280;75256;48.062;11.662;2024-03-08T06:33:30;94947.03;;;-0.40;89.54
84959;BME280;75256;48.062;11.662;2024-03-08T06:35:58;94948.56;;;-0.25;88.76
84959;BME280;75256;48.062;11.662;2024-03-08T06:38:26;94947.81;;;-0.19;88.30
84959;BME280;75256;48.062;11.662;2024-03-08T06:40:54;94947.03;;;-0.12;87.96
84959;BME280;75256;48.062;11.662;2024-03-08T06:43:21;94947.03;;;-0.16;88.36
84959;BME280;75256;48.062;11.662;2024-03-08T06:45:55;94944.34;;;-0.12;87.38
84959;BME280;75256;48.062;11.662;2024-03-08T06:48:23;94945.09;;;-0.01;88.14
84959;BME280;75256;48.062;11.662;2024-03-08T06:50:48;94948.53;;;0.10;87.35
84959;BME280;75256;48.062;11.662;2024-03-08T06:53:14;94950.06;;;0.11;87.02
84959;BME280;75256;48.062;11.662;2024-03-08T06:55:42;94943.16;;;0.07;87.70
84959;BME280;75256;48.062;11.662;2024-03-08T06:58:07;94949.28;;;0.03;87.72
84959;BME280;75256;48.062;11.662;2024-03-08T07:00:33;94941.59;;;0.20;87.15
84959;BME280;75256;48.062;11.662;2024-03-08T07:02:59;94943.88;;;0.32;87.09
84959;BME280;75256;48.062;11.662;2024-03-08T07:05:32;94943.88;;;0.28;86.78
84959;BME280;75256;48.062;11.662;2024-03-08T07:08:00;94940.00;;;0.36;86.52
84959;BME280;75256;48.062;11.662;2024-03-08T07:10:25;94940.38;;;0.49;86.43
84959;BME280;75256;48.062;11.662;2024-03-08T07:12:51;94942.25;;;0.55;86.07
84959;BME280;75256;48.062;11.662;2024-03-08T07:15:19;94943.06;;;0.49;84.98
84959;BME280;75256;48.062;11.662;2024-03-08T07:17:47;94944.97;;;0.52;85.47
84959;BME280;75256;48.062;11.662;2024-03-08T07:20:20;94944.91;;;0.62;84.90
84959;BME280;75256;48.062;11.662;2024-03-08T07:22:46;94943.34;;;0.72;85.36
84959;BME280;75256;48.062;11.662;2024-03-08T07:25:18;94940.59;;;0.82;85.66
84959;BME280;75256;48.062;11.662;2024-03-08T07:27:50;94933.72;;;0.74;83.38
84959;BME280;75256;48.062;11.662;2024-03-08T07:30:17;94939.91;;;0.61;84.65
84959;BME280;75256;48.062;11.662;2024-03-08T07:33:07;94934.91;;;0.70;85.17
84959;BME280;75256;48.062;11.662;2024-03-08T07:35:33;94936.75;;;0.83;84.12
84959;BME280;75256;48.062;11.662;2024-03-08T07:38:03;94930.94;;;0.99;84.68
84959;BME280;75256;48.062;11.662;2024-03-08T07:40:29;94931.63;;;1.06;84.01
84959;BME280;75256;48.062;11.662;2024-03-08T07:42:57;94931.53;;;1.24;83.67
84959;BME280;75256;48.062;11.662;2024-03-08T07:45:26;94921.22;;;1.15;83.21
84959;BME280;75256;48.062;11.662;2024-03-08T07:47:56;94930.56;;;0.97;83.53
84959;BME280;75256;48.062;11.662;2024-03-08T07:50:22;94920.50;;;1.04;83.27
84959;BME280;75256;48.062;11.662;2024-03-08T07:52:48;94919.63;;;1.25;83.98
84959;BME280;75256;48.062;11.662;2024-03-08T07:55:13;94909.53;;;1.40;82.09
84959;BME280;75256;48.062;11.662;2024-03-08T07:57:39;94912.94;;;1.47;82.05
84959;BME280;75256;48.062;11.662;2024-03-08T08:00:05;94908.03;;;1.35;82.32
84959;BME280;75256;48.062;11.662;2024-03-08T08:02:33;94903.66;;;1.52;82.59
84959;BME280;75256;48.062;11.662;2024-03-08T08:04:59;94907.47;;;1.58;82.12
84959;BME280;75256;48.062;11.662;2024-03-08T08:07:27;94911.56;;;1.73;81.64
84959;BME280;75256;48.062;11.662;2024-03-08T08:09:55;94909.94;;;1.82;80.91
84959;BME280;75256;48.062;11.662;2024-03-08T08:12:23;94901.78;;;1.93;80.45
84959;BME280;75256;48.062;11.662;2024-03-08T08:14:50;94902.84;;;2.02;79.71
84959;BME280;75256;48.062;11.662;2024-03-08T08:17:18;94908.63;;;2.01;79.77
84959;BME280;75256;48.062;11.662;2024-03-08T08:19:50;94906.44;;;2.26;80.04
84959;BME280;75256;48.062;11.662;2024-03-08T08:22:16;94907.00;;;2.44;79.52
84959;BME280;75256;48.062;11.662;2024-03-08T08:24:43;94897.03;;;2.41;78.83
84959;BME280;75256;48.062;11.662;2024-03-08T08:27:08;94909.97;;;2.53;79.01
84959;BME280;75256;48.062;11.662;2024-03-08T08:29:34;94907.22;;;2.60;78.73
84959;BME280;75256;48.062;11.662;2024-03-08T08:32:00;94896.56;;;2.80;78.85
84959;BME280;75256;48.062;11.662;2024-03-08T08:34:26;94899.53;;;2.89;79.15
84959;BME280;75256;48.062;11.662;2024-03-08T08:36:57;94890.13;;;3.00;78.57
84959;BME280;75256;48.062;11.662;2024-03-08T08:39:23;94880.13;;;3.01;78.31
84959;BME280;75256;48.062;11.662;2024-03-08T08:41:51;94881.22;;;3.03;78.00
84959;BME280;75256;48.062;11.662;2024-03-08T08:44:16;94884.84;;;2.93;78.19
84959;BME280;75256;48.062;11.662;2024-03-08T08:46:44;94871.66;;;2.99;78.85
84959;BME280;75256;48.062;11.662;2024-03-08T08:49:09;94874.56;;;3.11;77.77
84959;BME280;75256;48.062;11.662;2024-03-08T08:51:36;94866.69;;;3.24;78.49
84959;BME280;75256;48.062;11.662;2024-03-08T08:54:04;94872.22;;;3.13;77.78
84959;BME280;75256;48.062;11.662;2024-03-08T08:56:31;94866.00;;;3.16;78.36
84959;BME280;75256;48.062;11.662;2024-03-08T08:58:59;94867.19;;;3.15;78.60
84959;BME280;75256;48.062;11.662;2024-03-08T09:01:24;94863.81;;;3.08;77.16
84959;BME280;75256;48.062;11.662;2024-03-08T09:03:52;94869.34;;;3.01;78.88
84959;BME280;75256;48.062;11.662;2024-03-08T09:06:19;94860.13;;;2.98;79.61
84959;BME280;75256;48.062;11.662;2024-03-08T09:08:45;94859.34;;;2.98;78.25
84959;BME280;75256;48.062;11.662;2024-03-08T09:11:11;94849.66;;;3.04;77.92
84959;BME280;75256;48.062;11.662;2024-03-08T09:13:36;94853.84;;;3.05;78.49
84959;BME280;75256;48.062;11.662;2024-03-08T09:16:03;94855.69;;;3.11;77.92
84959;BME280;75256;48.062;11.662;2024-03-08T09:18:30;94854.84;;;3.14;77.50
84959;BME280;75256;48.062;11.662;2024-03-08T09:20:57;94846.03;;;3.14;77.95
84959;BME280;75256;48.062;11.662;2024-03-08T09:23:23;94843.63;;;3.19;76.57
84959;BME280;75256;48.062;11.662;2024-03-08T09:25:49;94836.28;;;3.20;76.04
84959;BME280;75256;48.062;11.662;2024-03-08T09:28:14;94830.50;;;3.21;75.72
84959;BME280;75256;48.062;11.662;2024-03-08T09:30:43;94836.59;;;3.25;77.85
84959;BME280;75256;48.062;11.662;2024-03-08T09:33:09;94830.63;;;3.37;75.61
84959;BME280;75256;48.062;11.662;2024-03-08T09:35:38;94834.75;;;3.45;76.46
84959;BME280;75256;48.062;11.662;2024-03-08T09:38:04;94825.81;;;3.48;77.07
84959;BME280;75256;48.062;11.662;2024-03-08T09:40:32;94833.44;;;3.53;76.34
84959;BME280;75256;48.062;11.662;2024-03-08T09:43:00;94818.72;;;3.58;76.63
84959;BME280;75256;48.062;11.662;2024-03-08T09:45:29;94825.47;;;3.69;77.10
84959;BME280;75256;48.062;11.662;2024-03-08T09:47:57;94827.91;;;3.83;73.99
84959;BME280;75256;48.062;11.662;2024-03-08T09:50:22;94823.97;;;3.88;75.16
84959;BME280;75256;48.062;11.662;2024-03-08T09:52:49;94823.69;;;4.02;76.05
84959;BME280;75256;48.062;11.662;2024-03-08T09:55:16;94823.56;;;4.09;75.99
84959;BME280;75256;48.062;11.662;2024-03-08T09:57:43;94832.78;;;4.12;75.01
84959;BME280;75256;48.062;11.662;2024-03-08T10:00:27;94820.03;;;4.12;75.77
84959;BME280;75256;48.062;11.662;2024-03-08T10:03:00;94822.47;;;4.26;73.96
84959;BME280;75256;48.062;11.662;2024-03-08T10:05:28;94817.00;;;4.30;75.17
84959;BME280;75256;48.062;11.662;2024-03-08T10:07:53;94814.91;;;4.37;74.20
84959;BME280;75256;48.062;11.662;2024-03-08T10:10:21;94815.53;;;4.45;76.19
84959;BME280;75256;48.062;11.662;2024-03-08T10:12:51;94818.19;;;4.48;72.79
84959;BME280;75256;48.062;11.662;2024-03-08T10:15:17;94813.03;;;4.54;74.32
84959;BME280;75256;48.062;11.662;2024-03-08T10:17:45;94809.03;;;4.78;72.40
84959;BME280;75256;48.062;11.662;2024-03-08T10:20:19;94805.25;;;4.75;73.71
84959;BME280;75256;48.062;11.662;2024-03-08T10:22:47;94802.19;;;4.73;74.18
84959;BME280;75256;48.062;11.662;2024-03-08T10:25:13;94800.94;;;4.78;72.10
84959;BME280;75256;48.062;11.662;2024-03-08T10:27:39;94791.31;;;4.77;72.43
84959;BME280;75256;48.062;11.662;2024-03-08T10:30:16;94789.88;;;4.88;72.15
84959;BME280;75256;48.062;11.662;2024-03-08T10:32:45;94788.97;;;5.11;70.79
84959;BME280;75256;48.062;11.662;2024-03-08T10:35:10;94784.06;;;5.06;71.87
84959;BME280;75256;48.062;11.662;2024-03-08T10:37:44;94786.59;;;5.13;72.95
84959;BME280;75256;48.062;11.662;2024-03-08T10:40:16;94782.47;;;5.25;71.84
84959;BME280;75256;48.062;11.662;2024-03-08T10:43:00;94786.09;;;5.34;70.11
84959;BME280;75256;48.062;11.662;2024-03-08T10:48:02;94781.50;;;5.63;68.93
84959;BME280;75256;48.062;11.662;2024-03-08T10:50:29;94780.25;;;5.68;67.93
84959;BME280;75256;48.062;11.662;2024-03-08T10:53:00;94789.28;;;5.61;69.81
84959;BME280;75256;48.062;11.662;2024-03-08T10:55:28;94777.94;;;5.66;69.57
84959;BME280;75256;48.062;11.662;2024-03-08T10:57:55;94774.38;;;5.85;69.94
84959;BME280;75256;48.062;11.662;2024-03-08T11:00:23;94770.44;;;6.02;67.74
84959;BME280;75256;48.062;11.662;2024-03-08T11:02:52;94775.56;;;6.13;67.04
84959;BME280;75256;48.062;11.662;2024-03-08T11:05:39;94763.97;;;6.12;69.02
84959;BME280;75256;48.062;11.662;2024-03-08T11:08:17;94767.59;;;6.35;68.34
84959;BME280;75256;48.062;11.662;2024-03-08T11:13:36;94751.78;;;6.33;68.12
84959;BME280;75256;48.062;11.662;2024-03-08T11:16:02;94740.19;;;6.58;66.92
84959;BME280;75256;48.062;11.662;2024-03-08T11:18:35;94738.03;;;6.53;68.00
84959;BME280;75256;48.062;11.662;2024-03-08T11:21:04;94744.44;;;6.71;67.98
84959;BME280;75256;48.062;11.662;2024-03-08T11:23:38;94742.25;;;6.79;68.23
84959;BME280;75256;48.062;11.662;2024-03-08T11:26:20;94728.72;;;6.91;67.10
84959;BME280;75256;48.062;11.662;2024-03-08T11:28:46;94733.47;;;7.00;66.81
84959;BME280;75256;48.062;11.662;2024-03-08T11:33:41;94721.81;;;7.24;66.27
84959;BME280;75256;48.062;11.662;2024-03-08T11:36:13;94720.94;;;7.40;64.84
84959;BME280;75256;48.062;11.662;2024-03-08T11:38:47;94714.16;;;7.57;63.72
84959;BME280;75256;48.062;11.662;2024-03-08T11:41:20;94711.75;;;7.59;63.84
84959;BME280;75256;48.062;11.662;2024-03-08T11:43:46;94719.72;;;7.75;63.26
84959;BME280;75256;48.062;11.662;2024-03-08T11:46:13;94722.69;;;7.68;63.35
84959;BME280;75256;48.062;11.662;2024-03-08T11:48:42;94714.75;;;7.74;62.79
84959;BME280;75256;48.062;11.662;2024-03-08T11:51:11;94718.81;;;7.91;62.92
84959;BME280;75256;48.062;11.662;2024-03-08T11:53:40;94718.13;;;7.99;63.30
84959;BME280;75256;48.062;11.662;2024-03-08T11:56:14;94709.97;;;7.99;63.08
84959;BME280;75256;48.062;11.662;2024-03-08T11:58:41;94709.75;;;8.15;62.38
84959;BME280;75256;48.062;11.662;2024-03-08T12:01:07;94707.16;;;8.12;62.45
84959;BME280;75256;48.062;11.662;2024-03-08T12:03:40;94698.09;;;8.27;61.85
84959;BME280;75256;48.062;11.662;2024-03-08T12:06:10;94694.66;;;8.36;62.61
84959;BME280;75256;48.062;11.662;2024-03-08T12:08:38;94699.19;;;8.39;61.50
84959;BME280;75256;48.062;11.662;2024-03-08T12:11:06;94693.97;;;8.53;61.09
84959;BME280;75256;48.062;11.662;2024-03-08T12:13:37;94697.53;;;8.63;61.94
84959;BME280;75256;48.062;11.662;2024-03-08T12:16:03;94687.75;;;8.74;61.59
84959;BME280;75256;48.062;11.662;2024-03-08T12:18:38;94683.84;;;8.85;61.77
84959;BME280;75256;48.062;11.662;2024-03-08T12:21:14;94679.31;;;8.91;60.82
84959;BME280;75256;48.062;11.662;2024-03-08T12:23:44;94677.69;;;8.93;60.96
84959;BME280;75256;48.062;11.662;2024-03-08T12:26:26;94674.53;;;9.04;59.77
84959;BME280;75256;48.062;11.662;2024-03-08T12:28:53;94666.78;;;8.93;59.53
84959;BME280;75256;48.062;11.662;2024-03-08T12:31:19;94666.97;;;9.08;60.85
84959;BME280;75256;48.062;11.662;2024-03-08T12:33:53;94656.06;;;8.99;58.38
84959;BME280;75256;48.062;11.662;2024-03-08T12:36:21;94654.53;;;8.98;58.18
84959;BME280;75256;48.062;11.662;2024-03-08T12:38:47;94656.41;;;9.19;59.89
84959;BME280;75256;48.062;11.662;2024-03-08T12:41:15;94647.78;;;9.11;59.51
84959;BME280;75256;48.062;11.662;2024-03-08T12:43:42;94646.28;;;9.10;58.88
84959;BME280;75256;48.062;11.662;2024-03-08T12:46:10;94651.59;;;9.32;59.76
84959;BME280;75256;48.062;11.662;2024-03-08T12:48:37;94629.19;;;9.55;60.03
84959;BME280;75256;48.062;11.662;2024-03-08T12:51:06;94625.09;;;9.68;57.99
84959;BME280;75256;48.062;11.662;2024-03-08T12:53:34;94630.25;;;9.66;57.86
84959;BME280;75256;48.062;11.662;2024-03-08T12:56:00;94633.91;;;9.63;58.24
84959;BME280;75256;48.062;11.662;2024-03-08T12:58:28;94630.44;;;9.54;56.38
84959;BME280;75256;48.062;11.662;2024-03-08T13:00:55;94631.31;;;9.42;57.48
84959;BME280;75256;48.062;11.662;2024-03-08T13:03:23;94621.78;;;9.64;58.56
84959;BME280;75256;48.062;11.662;2024-03-08T13:05:51;94616.19;;;9.77;57.36